Casselman, Canada
Current Conditions -  °F | °C
As of 12:53 AM on Wednesday 28 Jan 2015 (Local Time) from KMSS Reporting Station
Clear Clear  
Wind Chill:   Ceiling: Unl
Heat Index:   Visibility: 10mi
Dew Point: -5°   Wind: 5mph
Humidity: 53%   Direction: 340°NNW
Pressure: 30.06"   Gusts: NA
Location:  45.3°N, 75.08°W
Report Text: KMSS 280553Z AUTO 34004KT 10SM CLR M13/M21 A3006 RMK AO2 SLP189 T11281206 11111 21133 53007
Loading
Personal Weather Stations






























Interactive Weather Map New forecast layout! Learn more

10-Day Weather Forecast

Advertisements
Track Severe Weather on mobile